Terminal Aerodrome Forecast
Issued by NWS

Home | Current Version | Previous Version | Text Only | Print | Product List | Glossary On
Versions: 1 2 3 4 5 6 7 8 9 10 11 12 13 14 15 16 17 18 19 20
000
FTUS41 KCAR 010540
TAFPQI
TAF
KPQI 010540Z 0106/0206 22006KT P6SM SCT070
     FM011500 21008KT P6SM VCSH BKN050
     FM011800 22010KT P6SM VCTS SCT025 BKN040CB
     FM012300 25006KT P6SM -SHRA OVC045
     FM020200 VRB03KT 5SM BR SKC
      AMD LTD TO CLD VIS AND WIND=

USA.gov is the U.S. government's official web portal to all federal, state and local government web resources and services.